Time;durP1;ratioP1;P1;durP2;ratioP2;P2;SDS_P1;SDS_P2;PMS_P1;PMS_P2;Temp;Humidity;BMP_temperature;BMP_pressure;BME280_temperature;BME280_humidity;BME280_pressure;Samples;Min_cycle;Max_cycle;Signal;HPM_P1;HPM_P2
2023/12/03 00:01:48;;;;;;;12.37;8.00;;;-1.70;99.90;;;;;;4951172;28;20216;-28
2023/12/03 00:04:14;;;;;;;10.97;7.63;;;-1.70;99.90;;;;;;4955184;28;20193;-27
2023/12/03 00:06:40;;;;;;;13.77;8.23;;;-1.70;99.90;;;;;;4968710;28;20193;-27
2023/12/03 00:09:06;;;;;;;10.47;7.63;;;-1.70;99.90;;;;;;4962217;28;20187;-28
2023/12/03 00:11:32;;;;;;;9.20;7.40;;;-1.70;99.90;;;;;;4954370;28;20398;-27
2023/12/03 00:13:58;;;;;;;11.20;8.00;;;-1.60;99.90;;;;;;4949993;28;20173;-28
2023/12/03 00:16:24;;;;;;;10.10;7.40;;;-1.60;99.90;;;;;;4950146;28;20193;-28
2023/12/03 00:18:50;;;;;;;10.20;7.13;;;-1.60;99.90;;;;;;4957548;28;20204;-27
2023/12/03 00:21:16;;;;;;;9.40;6.93;;;-1.60;99.90;;;;;;4955636;28;20266;-28
2023/12/03 00:23:42;;;;;;;9.90;6.97;;;-1.70;99.90;;;;;;4940155;28;20252;-28
2023/12/03 00:26:07;;;;;;;10.23;7.00;;;-1.70;99.90;;;;;;4941746;28;20185;-28
2023/12/03 00:28:34;;;;;;;10.40;7.33;;;-1.70;99.90;;;;;;4953261;28;20212;-28
2023/12/03 00:31:00;;;;;;;11.73;7.20;;;-1.80;99.90;;;;;;4956949;28;20320;-27
2023/12/03 00:33:26;;;;;;;10.37;7.30;;;-1.80;99.90;;;;;;4951691;28;20184;-28
2023/12/03 00:35:51;;;;;;;10.00;6.93;;;-1.80;99.90;;;;;;4954053;28;20200;-28
2023/12/03 00:38:17;;;;;;;11.43;7.30;;;-1.80;99.90;;;;;;4949477;28;20185;-28
2023/12/03 00:40:43;;;;;;;12.63;7.83;;;-1.80;99.90;;;;;;4934566;28;20278;-28
2023/12/03 00:43:09;;;;;;;11.50;7.53;;;-1.90;99.90;;;;;;4953566;28;20244;-28
2023/12/03 00:45:34;;;;;;;11.97;8.03;;;-1.80;99.90;;;;;;4957662;28;20218;-28
2023/12/03 00:48:01;;;;;;;12.93;8.27;;;-1.80;99.90;;;;;;4957678;28;20294;-28
2023/12/03 00:50:27;;;;;;;12.80;8.40;;;-1.80;99.90;;;;;;4953929;28;20182;-28
2023/12/03 00:52:52;;;;;;;11.60;7.67;;;-1.80;99.90;;;;;;4952585;28;20193;-27
2023/12/03 00:55:18;;;;;;;11.50;7.40;;;-1.80;99.90;;;;;;4952291;28;20195;-28
2023/12/03 00:57:44;;;;;;;12.00;8.07;;;-1.80;99.90;;;;;;4938961;28;20189;-28
2023/12/03 01:00:10;;;;;;;12.77;8.13;;;-1.70;99.90;;;;;;4968721;28;20174;-28
2023/12/03 01:02:36;;;;;;;12.10;8.33;;;-1.70;99.90;;;;;;4954667;28;20235;-28
2023/12/03 01:05:02;;;;;;;13.13;8.30;;;-1.70;99.90;;;;;;4937123;28;20189;-28
2023/12/03 01:07:28;;;;;;;24.93;13.27;;;-1.70;99.90;;;;;;4951508;28;20198;-27
2023/12/03 01:09:54;;;;;;;21.43;12.13;;;-1.70;99.90;;;;;;4971236;28;20188;-27
2023/12/03 01:12:19;;;;;;;14.67;9.47;;;-1.70;99.90;;;;;;4939159;28;20221;-28
2023/12/03 01:14:45;;;;;;;17.03;10.30;;;-1.70;99.90;;;;;;4932808;28;20273;-27
2023/12/03 01:17:11;;;;;;;15.53;9.47;;;-1.70;99.90;;;;;;4952533;28;20183;-28
2023/12/03 01:19:37;;;;;;;11.03;8.17;;;-1.70;99.90;;;;;;4953087;28;20264;-27
2023/12/03 01:22:03;;;;;;;11.23;7.90;;;-1.70;99.90;;;;;;4957239;28;20210;-28
2023/12/03 01:24:29;;;;;;;13.73;9.07;;;-1.70;99.90;;;;;;4953968;28;20190;-27
2023/12/03 01:26:55;;;;;;;12.73;8.47;;;-1.70;99.90;;;;;;4955984;28;20193;-27
2023/12/03 01:29:21;;;;;;;11.03;7.43;;;-1.60;99.90;;;;;;4954954;28;20278;-28
2023/12/03 01:31:47;;;;;;;12.10;7.70;;;-1.70;99.90;;;;;;4935285;28;20310;-28
2023/12/03 01:34:13;;;;;;;12.30;8.00;;;-1.60;99.90;;;;;;4953770;28;20187;-28
2023/12/03 01:36:39;;;;;;;12.03;7.40;;;-1.60;99.90;;;;;;4951791;28;20182;-27
2023/12/03 01:39:07;;;;;;;12.37;8.17;;;-1.70;99.90;;;;;;4970870;28;20179;-28
2023/12/03 01:41:33;;;;;;;12.50;8.07;;;-1.70;99.90;;;;;;4956188;28;20205;-27
2023/12/03 01:43:59;;;;;;;12.43;8.00;;;-1.70;99.90;;;;;;4954884;28;20241;-27
2023/12/03 01:46:27;;;;;;;11.37;7.90;;;-1.70;99.90;;;;;;4953750;28;20205;-28
2023/12/03 01:48:54;;;;;;;13.57;8.47;;;-1.80;99.90;;;;;;4936669;28;20268;-27
2023/12/03 01:51:20;;;;;;;13.00;8.07;;;-1.80;99.90;;;;;;4950682;28;20217;-27
2023/12/03 01:53:47;;;;;;;14.00;8.50;;;-1.80;99.90;;;;;;4940129;28;20186;-28
2023/12/03 01:56:13;;;;;;;13.03;8.20;;;-1.80;99.90;;;;;;4936302;28;20277;-28
2023/12/03 01:58:40;;;;;;;11.93;8.53;;;-1.90;99.90;;;;;;4954439;28;20248;-28
2023/12/03 02:01:06;;;;;;;14.07;8.80;;;-1.80;99.90;;;;;;4954388;28;20220;-28
2023/12/03 02:03:32;;;;;;;12.60;8.40;;;-1.80;99.90;;;;;;4952513;28;20666;-28
2023/12/03 02:06:06;;;;;;;14.17;8.53;;;-1.80;99.90;;;;;;4939171;28;20204;-27
2023/12/03 02:08:33;;;;;;;12.80;8.60;;;-1.80;99.90;;;;;;4970320;28;20198;-27
2023/12/03 02:11:00;;;;;;;12.93;7.83;;;-1.80;99.90;;;;;;4968526;28;20223;-28
2023/12/03 02:13:29;;;;;;;12.47;8.17;;;-1.80;99.90;;;;;;4938217;28;20182;-27
2023/12/03 02:15:55;;;;;;;12.20;8.30;;;-1.80;99.90;;;;;;4937880;28;20185;-28
2023/12/03 02:18:21;;;;;;;14.83;8.40;;;-1.70;99.90;;;;;;4953206;28;20273;-27
2023/12/03 02:20:47;;;;;;;14.03;8.67;;;-1.80;99.90;;;;;;4950958;28;20288;-27
2023/12/03 02:23:14;;;;;;;11.77;8.27;;;-1.80;99.90;;;;;;4935480;28;20184;-27
2023/12/03 02:25:41;;;;;;;13.47;8.17;;;-1.90;99.90;;;;;;4955153;28;20190;-27
2023/12/03 02:28:07;;;;;;;11.67;7.93;;;-1.90;99.90;;;;;;4956772;28;20190;-27
2023/12/03 02:30:33;;;;;;;10.93;7.57;;;-2.00;99.90;;;;;;4953660;28;20189;-27
2023/12/03 02:32:59;;;;;;;12.70;7.47;;;-2.00;99.90;;;;;;4962467;28;20232;-27
2023/12/03 02:35:25;;;;;;;11.13;8.23;;;-2.10;99.90;;;;;;4936098;28;20189;-27
2023/12/03 02:37:51;;;;;;;13.27;7.87;;;-2.10;99.90;;;;;;4954456;28;20197;-28
2023/12/03 02:40:16;;;;;;;13.53;7.83;;;-2.20;99.90;;;;;;4955698;28;20193;-27
2023/12/03 02:42:42;;;;;;;12.83;8.23;;;-2.20;99.90;;;;;;4952386;28;20217;-27
2023/12/03 02:45:10;;;;;;;13.40;8.70;;;-2.30;99.90;;;;;;4955005;28;20185;-27
2023/12/03 02:47:35;;;;;;;14.77;8.67;;;-2.30;99.90;;;;;;4953748;28;20272;-27
2023/12/03 02:50:01;;;;;;;12.97;8.43;;;-2.30;99.90;;;;;;4954804;28;20281;-27
2023/12/03 02:52:27;;;;;;;12.97;8.57;;;-2.30;99.90;;;;;;4947464;28;20215;-28
2023/12/03 02:54:53;;;;;;;11.53;7.90;;;-2.40;99.90;;;;;;4949908;28;20181;-28
2023/12/03 02:57:19;;;;;;;12.63;8.33;;;-2.40;99.90;;;;;;4937581;28;20186;-27
2023/12/03 02:59:45;;;;;;;13.87;8.07;;;-2.50;99.90;;;;;;4947957;28;20193;-28
2023/12/03 03:02:10;;;;;;;12.03;7.93;;;-2.60;99.90;;;;;;4940571;28;20232;-27
2023/12/03 03:04:36;;;;;;;13.97;8.70;;;-2.60;99.90;;;;;;4954111;28;20202;-27
2023/12/03 03:07:02;;;;;;;13.07;8.67;;;-2.70;99.90;;;;;;4950118;28;20179;-28
2023/12/03 03:09:28;;;;;;;12.73;7.20;;;-2.80;99.90;;;;;;4954338;28;20276;-27
2023/12/03 03:11:57;;;;;;;11.63;7.17;;;-2.80;99.90;;;;;;4954099;28;20214;-28
2023/12/03 03:14:24;;;;;;;12.23;7.17;;;-3.10;99.90;;;;;;4934288;28;20208;-27
2023/12/03 03:16:50;;;;;;;10.90;7.07;;;-3.30;99.90;;;;;;4952467;28;20181;-27
2023/12/03 03:19:15;;;;;;;11.40;7.10;;;-3.40;99.90;;;;;;4940016;28;20181;-27
2023/12/03 03:21:41;;;;;;;10.50;7.07;;;-3.40;99.90;;;;;;4952201;28;20223;-27
2023/12/03 03:24:07;;;;;;;9.50;7.00;;;-3.50;99.90;;;;;;4969341;28;20296;-27
2023/12/03 03:26:33;;;;;;;11.63;7.40;;;-3.50;99.90;;;;;;4952786;28;20212;-27
2023/12/03 03:28:59;;;;;;;12.70;8.00;;;-3.50;99.90;;;;;;4966862;28;20192;-27
2023/12/03 03:31:25;;;;;;;12.13;7.70;;;-3.50;99.90;;;;;;4951144;28;20216;-27
2023/12/03 03:33:51;;;;;;;12.53;7.63;;;-3.60;99.90;;;;;;4950521;28;20195;-27
2023/12/03 03:36:17;;;;;;;11.60;7.40;;;-3.70;99.90;;;;;;4933826;28;20182;-27
2023/12/03 03:38:43;;;;;;;10.53;7.00;;;-3.90;99.90;;;;;;4952009;28;20184;-27
2023/12/03 03:41:10;;;;;;;11.23;6.87;;;-4.10;99.90;;;;;;4937765;28;20216;-27
2023/12/03 03:43:36;;;;;;;12.83;7.80;;;-4.10;99.90;;;;;;4952843;28;20195;-27
2023/12/03 03:46:02;;;;;;;13.53;8.10;;;-4.20;99.90;;;;;;4954971;28;20288;-27
2023/12/03 03:48:28;;;;;;;12.63;8.13;;;-4.10;99.90;;;;;;4934498;28;20184;-27
2023/12/03 03:50:54;;;;;;;13.53;7.97;;;-4.10;99.90;;;;;;4952449;28;20274;-27
2023/12/03 03:53:20;;;;;;;13.83;7.83;;;-4.10;99.90;;;;;;4951393;28;20199;-27
2023/12/03 03:55:45;;;;;;;14.43;8.67;;;-4.10;99.90;;;;;;4947571;28;20180;-27
2023/12/03 03:58:11;;;;;;;15.50;8.90;;;-4.10;99.90;;;;;;4952955;28;20195;-27
2023/12/03 04:00:38;;;;;;;14.33;7.63;;;-4.10;99.90;;;;;;4951254;28;20205;-27
2023/12/03 04:03:04;;;;;;;13.20;8.17;;;-4.10;99.90;;;;;;4936312;28;20187;-27
2023/12/03 04:05:30;;;;;;;14.80;8.20;;;-4.10;99.90;;;;;;4969211;28;20207;-27
2023/12/03 04:07:56;;;;;;;13.47;8.20;;;-4.10;99.90;;;;;;4952246;28;20207;-27
2023/12/03 04:10:22;;;;;;;12.57;8.20;;;-4.10;99.90;;;;;;4953038;28;20185;-27
2023/12/03 04:12:48;;;;;;;12.60;8.07;;;-4.10;99.90;;;;;;4939578;28;20307;-28
2023/12/03 04:15:14;;;;;;;13.27;7.90;;;-4.20;99.90;;;;;;4943476;28;20189;-27
2023/12/03 04:17:39;;;;;;;13.03;8.10;;;-4.20;99.90;;;;;;4962718;28;20188;-27
2023/12/03 04:20:06;;;;;;;12.07;7.40;;;-4.20;99.90;;;;;;4956419;28;20180;-27
2023/12/03 04:22:32;;;;;;;13.10;8.33;;;-4.20;99.90;;;;;;4948959;29;20216;-27
2023/12/03 04:24:58;;;;;;;11.80;7.73;;;-4.30;99.90;;;;;;4946584;28;20192;-27
2023/12/03 04:27:26;;;;;;;11.73;7.87;;;-4.30;99.90;;;;;;4961697;28;20240;-27
2023/12/03 04:29:51;;;;;;;14.83;8.37;;;-4.30;99.90;;;;;;4947717;28;20193;-27
2023/12/03 04:32:17;;;;;;;14.17;8.57;;;-4.30;99.90;;;;;;4955349;28;20220;-27
2023/12/03 04:34:43;;;;;;;13.77;7.77;;;-4.40;99.90;;;;;;4958711;28;20181;-27
2023/12/03 04:37:09;;;;;;;14.37;8.70;;;-4.40;99.90;;;;;;4956015;28;20173;-27
2023/12/03 04:39:35;;;;;;;11.20;7.43;;;-4.40;99.90;;;;;;4956228;28;20680;-27
2023/12/03 04:42:01;;;;;;;11.50;7.07;;;-4.70;99.90;;;;;;4945484;28;20221;-27
2023/12/03 04:44:27;;;;;;;13.97;6.87;;;-4.90;99.90;;;;;;4937279;28;20185;-26
2023/12/03 04:46:53;;;;;;;13.40;7.77;;;-5.00;99.90;;;;;;4957942;28;20251;-27
2023/12/03 04:49:19;;;;;;;14.00;8.23;;;-5.10;99.90;;;;;;4938011;28;20192;-27
2023/12/03 04:51:44;;;;;;;13.77;8.47;;;-5.20;99.90;;;;;;4960520;28;20216;-28
2023/12/03 04:54:10;;;;;;;13.43;7.97;;;-5.30;99.90;;;;;;4977961;28;20176;-27
2023/12/03 04:56:36;;;;;;;14.73;8.10;;;-5.40;99.90;;;;;;4939425;28;20231;-27
2023/12/03 04:59:02;;;;;;;12.80;8.50;;;-5.50;99.90;;;;;;4954200;28;20184;-27
2023/12/03 05:01:28;;;;;;;13.67;7.93;;;-5.50;99.90;;;;;;4964376;28;20226;-27
2023/12/03 05:03:54;;;;;;;11.90;7.73;;;-5.30;99.90;;;;;;4960278;28;20216;-27
2023/12/03 05:06:19;;;;;;;15.80;8.63;;;-5.20;99.90;;;;;;4953009;28;20200;-27
2023/12/03 05:08:45;;;;;;;14.10;8.20;;;-5.10;99.90;;;;;;4963516;28;20177;-27
2023/12/03 05:11:11;;;;;;;14.13;7.90;;;-5.10;99.90;;;;;;4951367;28;20369;-27
2023/12/03 05:13:37;;;;;;;14.77;8.47;;;-5.20;99.90;;;;;;4976260;28;20180;-27
2023/12/03 05:16:06;;;;;;;12.23;7.47;;;-5.10;99.90;;;;;;4935046;28;20189;-27
2023/12/03 05:18:32;;;;;;;16.43;8.47;;;-5.20;99.90;;;;;;4970884;28;20189;-27
2023/12/03 05:20:58;;;;;;;14.23;8.73;;;-5.10;99.90;;;;;;4954730;28;20208;-27
2023/12/03 05:23:25;;;;;;;14.77;8.37;;;-5.10;99.90;;;;;;4962662;28;20188;-27
2023/12/03 05:25:51;;;;;;;14.23;8.50;;;-5.10;99.90;;;;;;4955798;28;20608;-27
2023/12/03 05:28:17;;;;;;;12.33;7.40;;;-5.10;99.90;;;;;;4960586;28;20272;-27
2023/12/03 05:30:43;;;;;;;13.03;7.80;;;-5.20;99.90;;;;;;4977758;28;20308;-28
2023/12/03 05:33:09;;;;;;;14.43;8.30;;;-5.20;99.90;;;;;;4943998;28;20204;-27
2023/12/03 05:35:35;;;;;;;14.97;8.57;;;-5.20;99.90;;;;;;4943022;28;20195;-27
2023/12/03 05:38:01;;;;;;;13.77;7.80;;;-5.10;99.90;;;;;;4953544;28;20189;-27
2023/12/03 05:40:27;;;;;;;15.60;8.80;;;-5.10;99.90;;;;;;4948245;28;20189;-27
2023/12/03 05:42:52;;;;;;;15.13;8.90;;;-5.00;99.90;;;;;;4953450;28;20264;-27
2023/12/03 05:45:18;;;;;;;15.33;9.00;;;-5.00;99.90;;;;;;4947957;28;20200;-27
2023/12/03 05:47:44;;;;;;;15.90;9.20;;;-5.00;99.90;;;;;;4943317;28;20192;-27
2023/12/03 05:50:10;;;;;;;12.77;7.83;;;-5.00;99.90;;;;;;4962121;28;20271;-27
2023/12/03 05:52:36;;;;;;;16.83;9.40;;;-5.00;99.90;;;;;;4948865;28;20213;-27
2023/12/03 05:55:02;;;;;;;11.73;7.97;;;-5.10;99.90;;;;;;4945884;28;20189;-27
2023/12/03 05:57:28;;;;;;;13.27;7.73;;;-5.10;99.90;;;;;;4977452;28;20299;-27
2023/12/03 05:59:54;;;;;;;16.37;9.10;;;-5.10;99.90;;;;;;4964111;28;20255;-27
2023/12/03 06:02:20;;;;;;;12.53;7.70;;;-5.20;99.90;;;;;;4965113;28;20212;-27
2023/12/03 06:04:46;;;;;;;12.77;8.03;;;-5.20;99.90;;;;;;4954982;28;20188;-27
2023/12/03 06:07:12;;;;;;;15.13;8.20;;;-5.30;99.90;;;;;;4954883;28;20714;-27
2023/12/03 06:09:38;;;;;;;13.60;8.07;;;-5.30;99.90;;;;;;4941767;28;20176;-27
2023/12/03 06:12:04;;;;;;;12.83;8.17;;;-5.30;99.90;;;;;;4942995;28;20239;-27
2023/12/03 06:14:31;;;;;;;12.33;8.27;;;-5.40;99.90;;;;;;4952471;28;20184;-27
2023/12/03 06:16:57;;;;;;;12.07;8.03;;;-5.40;99.90;;;;;;4936212;28;20185;-27
2023/12/03 06:19:23;;;;;;;14.87;8.33;;;-5.40;99.90;;;;;;4961309;28;20188;-27
2023/12/03 06:21:49;;;;;;;14.17;8.93;;;-5.50;99.90;;;;;;4951837;28;20209;-26
2023/12/03 06:24:15;;;;;;;15.47;8.83;;;-5.50;99.90;;;;;;4934132;29;20189;-27
2023/12/03 06:26:41;;;;;;;13.63;7.90;;;-5.50;99.90;;;;;;4949790;28;20204;-27
2023/12/03 06:29:06;;;;;;;15.47;9.03;;;-5.40;99.90;;;;;;4959143;28;20192;-27
2023/12/03 06:31:33;;;;;;;14.67;8.63;;;-5.50;99.90;;;;;;4957204;28;20310;-27
2023/12/03 06:34:00;;;;;;;14.00;8.93;;;-5.60;99.90;;;;;;4945144;28;20216;-27
2023/12/03 06:36:26;;;;;;;12.73;8.17;;;-5.50;99.90;;;;;;4937355;28;20184;-27
2023/12/03 06:38:53;;;;;;;15.43;8.07;;;-5.60;99.90;;;;;;4979214;28;20192;-27
2023/12/03 06:41:18;;;;;;;13.20;7.57;;;-5.70;99.90;;;;;;4939828;28;20239;-27
2023/12/03 06:43:44;;;;;;;15.43;8.53;;;-5.80;99.90;;;;;;4941351;28;20227;-27
2023/12/03 06:46:10;;;;;;;16.53;9.17;;;-5.70;99.90;;;;;;4952717;28;20242;-27
2023/12/03 06:48:36;;;;;;;18.90;10.63;;;-5.70;99.90;;;;;;4950232;28;20279;-27
2023/12/03 06:51:02;;;;;;;17.53;10.47;;;-5.80;99.90;;;;;;4940372;28;20312;-27
2023/12/03 06:53:28;;;;;;;19.07;9.83;;;-5.70;99.90;;;;;;4949758;28;20217;-27
2023/12/03 06:55:54;;;;;;;17.63;10.73;;;-5.70;99.90;;;;;;4960660;28;20176;-27
2023/12/03 06:58:20;;;;;;;17.63;10.40;;;-5.70;99.90;;;;;;4956302;28;20271;-27
2023/12/03 07:00:46;;;;;;;15.00;8.63;;;-5.60;99.90;;;;;;4967051;28;20205;-27
2023/12/03 07:03:12;;;;;;;23.77;13.53;;;-5.50;99.90;;;;;;4965905;28;20188;-27
2023/12/03 07:05:38;;;;;;;15.50;9.70;;;-5.50;99.90;;;;;;4958205;28;20276;-27
2023/12/03 07:08:04;;;;;;;18.27;10.43;;;-5.50;99.90;;;;;;4929874;28;20276;-27
2023/12/03 07:10:30;;;;;;;16.30;10.60;;;-5.50;99.90;;;;;;4955850;28;20279;-27
2023/12/03 07:12:56;;;;;;;16.83;9.37;;;-5.40;99.90;;;;;;4954500;28;20285;-28
2023/12/03 07:15:21;;;;;;;14.97;8.30;;;-5.40;99.90;;;;;;4959660;28;20376;-27
2023/12/03 07:17:47;;;;;;;14.63;7.73;;;-5.40;99.90;;;;;;4941029;28;20192;-27
2023/12/03 07:20:13;;;;;;;16.13;8.77;;;-5.40;99.90;;;;;;4952859;28;20263;-27
2023/12/03 07:22:39;;;;;;;15.93;8.83;;;-5.40;99.90;;;;;;4947588;28;20286;-27
2023/12/03 07:25:05;;;;;;;15.53;9.30;;;-5.30;99.90;;;;;;4980660;28;20184;-27
2023/12/03 07:27:31;;;;;;;14.20;8.67;;;-5.30;99.90;;;;;;4960460;28;20199;-27
2023/12/03 07:29:57;;;;;;;13.93;8.80;;;-5.30;99.90;;;;;;4950035;28;20184;-27
2023/12/03 07:32:23;;;;;;;14.17;8.37;;;-5.30;99.90;;;;;;4964596;28;20227;-27
2023/12/03 07:34:49;;;;;;;15.10;8.80;;;-5.20;99.90;;;;;;4939798;28;20224;-27
2023/12/03 07:37:15;;;;;;;13.50;7.80;;;-5.10;99.90;;;;;;4934132;28;20193;-27
2023/12/03 07:39:41;;;;;;;14.00;7.97;;;-5.10;99.90;;;;;;4948831;28;20213;-27
2023/12/03 07:42:07;;;;;;;12.77;7.73;;;-5.10;99.90;;;;;;4966874;28;20250;-27
2023/12/03 07:44:33;;;;;;;15.03;8.53;;;-5.00;99.90;;;;;;4955150;28;20188;-27
2023/12/03 07:46:59;;;;;;;14.23;8.07;;;-5.00;99.90;;;;;;4950508;28;20207;-27
2023/12/03 07:49:25;;;;;;;15.00;8.70;;;-5.00;99.90;;;;;;4970518;28;20188;-27
2023/12/03 07:51:50;;;;;;;16.43;9.33;;;-5.00;99.90;;;;;;4944639;28;20208;-27
2023/12/03 07:54:17;;;;;;;15.60;9.77;;;-4.80;99.90;;;;;;4954390;28;20188;-27
2023/12/03 07:56:43;;;;;;;16.70;10.10;;;-4.80;99.90;;;;;;4961424;28;20197;-27
2023/12/03 07:59:09;;;;;;;19.53;12.47;;;-4.70;99.90;;;;;;4952652;28;20181;-27
2023/12/03 08:01:35;;;;;;;18.77;10.33;;;-4.70;99.90;;;;;;5022461;23;20298;-30
2023/12/03 08:04:03;;;;;;;14.50;9.03;;;-4.60;99.90;;;;;;4994826;28;20226;-29
2023/12/03 08:06:31;;;;;;;16.33;9.50;;;-4.60;99.90;;;;;;5031849;28;20182;-29
2023/12/03 08:09:00;;;;;;;17.73;10.77;;;-4.60;99.90;;;;;;5031958;28;20218;-28
2023/12/03 08:11:26;;;;;;;15.57;9.83;;;-4.60;99.90;;;;;;5008665;28;20235;-29
2023/12/03 08:13:55;;;;;;;15.73;9.03;;;-4.50;99.90;;;;;;4989841;28;20219;-29
2023/12/03 08:16:21;;;;;;;14.57;9.00;;;-4.40;99.90;;;;;;4977966;28;20179;-30
2023/12/03 08:18:47;;;;;;;17.33;11.33;;;-4.30;99.90;;;;;;4995077;28;20209;-29
2023/12/03 08:21:13;;;;;;;28.60;18.17;;;-4.20;99.90;;;;;;5004077;28;20214;-29
2023/12/03 08:23:40;;;;;;;22.00;13.30;;;-4.10;99.90;;;;;;4991453;28;20183;-30
2023/12/03 08:26:06;;;;;;;15.77;9.63;;;-4.00;99.90;;;;;;5011519;28;20245;-29
2023/12/03 08:28:32;;;;;;;15.47;8.57;;;-3.90;99.90;;;;;;4978938;28;20187;-29
2023/12/03 08:30:58;;;;;;;15.00;9.00;;;-3.80;99.90;;;;;;4987520;28;20203;-29
2023/12/03 08:33:24;;;;;;;13.50;8.53;;;-3.70;99.90;;;;;;4995391;28;20206;-29
2023/12/03 08:35:50;;;;;;;15.90;9.20;;;-3.60;99.90;;;;;;4995350;28;20207;-29
2023/12/03 08:38:16;;;;;;;16.37;9.40;;;-3.50;99.90;;;;;;4987915;28;20191;-29
2023/12/03 08:40:42;;;;;;;13.60;8.63;;;-3.40;99.90;;;;;;4998187;28;20198;-29
2023/12/03 08:43:07;;;;;;;14.00;8.97;;;-3.30;99.90;;;;;;5011398;28;20179;-30
2023/12/03 08:45:34;;;;;;;15.50;8.57;;;-3.30;99.90;;;;;;4974814;28;20271;-30
2023/12/03 08:48:00;;;;;;;14.67;9.07;;;-3.20;99.90;;;;;;4975721;28;20183;-29
2023/12/03 08:50:28;;;;;;;17.00;9.03;;;-3.20;99.90;;;;;;4990705;28;20343;-30
2023/12/03 08:52:55;;;;;;;14.60;8.90;;;-3.10;99.90;;;;;;4960445;28;20212;-30
2023/12/03 08:55:21;;;;;;;16.07;9.63;;;-3.00;99.90;;;;;;4986983;28;20198;-29
2023/12/03 08:57:47;;;;;;;14.97;9.50;;;-3.00;99.90;;;;;;4990643;28;20184;-30
2023/12/03 09:00:15;;;;;;;17.20;10.97;;;-2.90;99.90;;;;;;4972897;28;20176;-29
2023/12/03 09:02:45;;;;;;;22.37;14.27;;;-2.90;99.90;;;;;;4988977;28;20218;-29
2023/12/03 09:05:11;;;;;;;26.77;13.87;;;-3.10;99.90;;;;;;4977677;28;20186;-29
2023/12/03 09:07:38;;;;;;;35.97;17.17;;;-3.00;99.90;;;;;;4993413;28;20187;-30
2023/12/03 09:10:04;;;;;;;13.97;8.73;;;-2.90;99.90;;;;;;4992670;28;20189;-30
2023/12/03 09:12:30;;;;;;;13.90;8.93;;;-2.80;99.90;;;;;;4990314;28;20225;-29
2023/12/03 09:14:56;;;;;;;14.37;8.63;;;-2.70;99.90;;;;;;4986676;28;20183;-29
2023/12/03 09:17:22;;;;;;;15.23;9.23;;;-2.60;99.90;;;;;;4985467;28;20188;-29
2023/12/03 09:19:49;;;;;;;12.90;8.67;;;-2.50;99.90;;;;;;5001793;28;20176;-29
2023/12/03 09:22:15;;;;;;;14.40;9.23;;;-2.40;99.90;;;;;;4985672;28;20224;-30
2023/12/03 09:24:43;;;;;;;17.97;10.40;;;-2.30;99.90;;;;;;4970326;28;20275;-30
2023/12/03 09:27:09;;;;;;;14.87;8.93;;;-2.30;99.90;;;;;;4975421;28;20211;-29
2023/12/03 09:29:36;;;;;;;15.43;8.80;;;-2.20;99.90;;;;;;4976044;28;20197;-30
2023/12/03 09:32:04;;;;;;;16.37;10.00;;;-2.10;99.90;;;;;;4984747;28;20246;-30
2023/12/03 09:34:30;;;;;;;13.30;9.27;;;-2.00;99.90;;;;;;4969090;28;20191;-31
2023/12/03 09:36:56;;;;;;;18.17;10.90;;;-1.90;99.90;;;;;;4974210;28;20239;-30
2023/12/03 09:39:22;;;;;;;18.07;11.33;;;-1.80;99.90;;;;;;4982168;28;20246;-30
2023/12/03 09:41:49;;;;;;;16.30;10.07;;;-1.90;99.90;;;;;;4988566;28;20200;-30
2023/12/03 09:44:31;;;;;;;19.17;10.67;;;-1.80;99.90;;;;;;4987653;28;20268;-30
2023/12/03 09:46:58;;;;;;;16.40;10.47;;;-1.70;99.90;;;;;;4969332;28;20199;-29
2023/12/03 09:49:27;;;;;;;17.27;10.67;;;-1.70;99.90;;;;;;5010064;28;20186;-29
2023/12/03 09:51:56;;;;;;;16.10;10.70;;;-1.60;99.90;;;;;;4991914;28;20218;-30
2023/12/03 09:54:22;;;;;;;14.50;10.20;;;-1.60;99.90;;;;;;4993634;28;20206;-31
2023/12/03 09:56:51;;;;;;;15.07;9.73;;;-1.50;99.90;;;;;;4974404;28;20186;-30
2023/12/03 09:59:17;;;;;;;16.53;10.80;;;-1.40;99.90;;;;;;5002099;28;20186;-30
2023/12/03 10:01:43;;;;;;;18.03;10.40;;;-1.50;99.90;;;;;;4985728;28;20247;-29
2023/12/03 10:04:09;;;;;;;17.63;10.50;;;-1.40;99.90;;;;;;4993700;28;20195;-29
2023/12/03 10:06:42;;;;;;;17.03;10.40;;;-1.20;99.90;;;;;;4985948;28;20244;-30
2023/12/03 10:09:09;;;;;;;15.13;9.70;;;-1.10;99.90;;;;;;4987718;28;20199;-29
2023/12/03 10:11:50;;;;;;;14.90;10.07;;;-1.10;99.90;;;;;;4989606;28;20297;-30
2023/12/03 10:14:17;;;;;;;19.30;11.63;;;-1.10;99.90;;;;;;4975065;28;20184;-30
2023/12/03 10:16:52;;;;;;;18.20;12.10;;;-1.10;99.90;;;;;;4988199;28;20192;-29
2023/12/03 10:19:23;;;;;;;20.10;11.67;;;-1.00;99.90;;;;;;4985884;28;20212;-30
2023/12/03 10:21:53;;;;;;;21.17;12.20;;;-0.90;99.90;;;;;;4978551;28;20218;-30
2023/12/03 10:24:23;;;;;;;17.97;11.03;;;-0.80;99.90;;;;;;4974620;28;20189;-30
2023/12/03 10:26:54;;;;;;;18.10;11.57;;;-0.80;99.90;;;;;;4969307;28;20199;-30
2023/12/03 10:29:25;;;;;;;17.53;11.10;;;-0.80;99.90;;;;;;4981385;28;20190;-29
2023/12/03 10:31:51;;;;;;;19.63;11.90;;;-0.70;99.90;;;;;;4978814;28;20215;-29
2023/12/03 10:34:19;;;;;;;16.73;11.43;;;-0.50;99.90;;;;;;4986357;28;20187;-29
2023/12/03 10:36:47;;;;;;;19.27;12.07;;;-0.60;99.90;;;;;;5004904;28;20179;-30
2023/12/03 10:39:17;;;;;;;18.13;11.67;;;-0.40;99.90;;;;;;4993299;28;20321;-30
2023/12/03 10:41:52;;;;;;;19.33;12.93;;;-0.30;99.90;;;;;;5007863;28;20268;-29
2023/12/03 10:44:23;;;;;;;16.53;11.43;;;-0.30;99.90;;;;;;4975672;28;20192;-30
2023/12/03 10:46:50;;;;;;;18.13;11.80;;;-0.10;99.90;;;;;;4985288;28;20219;-29
2023/12/03 10:49:17;;;;;;;16.63;11.00;;;-0.10;99.90;;;;;;5011225;28;20201;-29
2023/12/03 10:51:48;;;;;;;19.70;11.37;;;0.00;99.90;;;;;;4993391;28;20215;-30
2023/12/03 10:54:14;;;;;;;17.10;11.83;;;-0.10;99.90;;;;;;4990665;28;20190;-29
2023/12/03 10:56:44;;;;;;;17.50;11.67;;;-0.30;99.90;;;;;;4971636;28;20188;-29
2023/12/03 10:59:12;;;;;;;14.50;10.30;;;-0.60;99.90;;;;;;4990972;28;20190;-29
2023/12/03 11:01:47;;;;;;;16.37;11.30;;;-0.80;99.90;;;;;;5009497;28;20268;-30
2023/12/03 11:04:27;;;;;;;17.50;11.87;;;-0.80;99.90;;;;;;4985317;28;20265;-30
2023/12/03 11:06:55;;;;;;;19.70;12.83;;;-0.50;99.90;;;;;;5008667;28;20237;-29
2023/12/03 11:09:23;;;;;;;16.17;11.27;;;-0.40;99.90;;;;;;4966092;28;20182;-30
2023/12/03 11:11:54;;;;;;;18.00;11.27;;;-0.10;99.90;;;;;;4984818;28;20218;-29
2023/12/03 11:14:20;;;;;;;17.37;11.37;;;0.10;99.90;;;;;;5008143;28;20316;-29
2023/12/03 11:16:58;;;;;;;14.90;9.87;;;0.20;99.90;;;;;;5004709;28;20247;-30
2023/12/03 11:19:25;;;;;;;13.67;9.43;;;0.40;99.90;;;;;;4987771;28;20199;-30
2023/12/03 11:22:06;;;;;;;16.50;9.80;;;0.50;99.90;;;;;;4988683;28;20206;-30
2023/12/03 11:24:50;;;;;;;16.00;9.30;;;0.50;99.90;;;;;;5023933;28;20182;-29
2023/12/03 11:27:16;;;;;;;12.93;9.07;;;0.60;99.90;;;;;;5002179;28;20186;-30
2023/12/03 11:30:11;;;;;;;17.50;8.83;;;0.70;99.90;;;;;;4986308;28;20206;-31
2023/12/03 11:32:38;;;;;;;12.70;8.37;;;0.70;99.90;;;;;;4971529;28;20234;-30
2023/12/03 11:35:15;;;;;;;13.90;8.50;;;0.70;99.90;;;;;;4974019;28;20182;-30
2023/12/03 11:37:43;;;;;;;11.90;8.20;;;0.70;99.90;;;;;;4976681;28;20300;-29
2023/12/03 11:40:12;;;;;;;13.63;9.10;;;0.70;99.90;;;;;;4992853;28;20187;-30
2023/12/03 11:42:42;;;;;;;13.77;8.90;;;0.80;99.90;;;;;;4984987;28;20206;-29
2023/12/03 11:45:19;;;;;;;16.23;10.80;;;0.80;99.90;;;;;;4991109;28;20194;-30
2023/12/03 11:48:06;;;;;;;16.67;9.67;;;0.90;99.90;;;;;;5010195;28;20272;-29
2023/12/03 11:50:38;;;;;;;16.40;9.63;;;1.00;99.90;;;;;;4986347;28;20178;-30
2023/12/03 11:53:07;;;;;;;18.07;10.73;;;1.10;99.90;;;;;;5006005;28;20210;-30
2023/12/03 11:55:39;;;;;;;16.80;11.63;;;1.20;99.90;;;;;;4977969;28;20175;-30
2023/12/03 11:58:06;;;;;;;14.07;9.20;;;1.40;99.90;;;;;;4975997;28;20183;-31
2023/12/03 12:00:33;;;;;;;14.10;9.30;;;1.60;99.90;;;;;;4992979;28;20179;-30
2023/12/03 12:03:00;;;;;;;13.83;9.37;;;1.60;99.90;;;;;;4973603;28;20318;-30
2023/12/03 12:05:27;;;;;;;15.23;10.23;;;1.70;99.90;;;;;;4991699;28;20233;-30
2023/12/03 12:08:01;;;;;;;15.33;10.90;;;1.80;99.90;;;;;;4975220;28;20180;-30
2023/12/03 12:10:28;;;;;;;12.47;9.27;;;1.90;99.90;;;;;;4970510;28;20188;-29
2023/12/03 12:12:57;;;;;;;15.93;9.80;;;2.10;99.90;;;;;;4992184;28;20214;-30
2023/12/03 12:15:23;;;;;;;14.70;9.73;;;2.20;99.90;;;;;;4982692;28;20188;-30
2023/12/03 12:17:49;;;;;;;15.30;9.67;;;2.40;99.90;;;;;;4975942;28;20225;-30
2023/12/03 12:20:22;;;;;;;12.00;8.03;;;2.50;99.90;;;;;;4973531;28;20187;-30
2023/12/03 12:22:49;;;;;;;16.63;9.50;;;2.60;99.90;;;;;;4991602;28;20215;-30
2023/12/03 12:25:15;;;;;;;12.67;9.27;;;2.70;99.90;;;;;;4990459;28;20176;-31
2023/12/03 12:27:41;;;;;;;12.20;8.10;;;2.70;99.90;;;;;;5005991;28;20205;-30
2023/12/03 12:30:08;;;;;;;11.57;8.83;;;2.80;99.90;;;;;;4969261;28;20245;-30
2023/12/03 12:32:34;;;;;;;12.87;8.60;;;2.80;99.90;;;;;;4979709;28;20215;-30
2023/12/03 12:35:02;;;;;;;11.97;8.63;;;2.90;99.90;;;;;;4979408;28;20183;-31